sensor_id;sensor_type;location;lat;lon;timestamp;temperature;humidity
73939;DHT22;62291;47.554;8.504;2023-11-21T00:01:02;8.60;99.90
73939;DHT22;62291;47.554;8.504;2023-11-21T00:03:30;8.60;99.90
73939;DHT22;62291;47.554;8.504;2023-11-21T00:05:55;8.60;99.90
73939;DHT22;62291;47.554;8.504;2023-11-21T00:08:21;8.60;99.90
73939;DHT22;62291;47.554;8.504;2023-11-21T00:10:47;8.70;99.90
73939;DHT22;62291;47.554;8.504;2023-11-21T00:13:13;8.70;99.90
73939;DHT22;62291;47.554;8.504;2023-11-21T00:15:39;8.70;99.90
73939;DHT22;62291;47.554;8.504;2023-11-21T00:18:06;8.70;99.90
73939;DHT22;62291;47.554;8.504;2023-11-21T00:20:32;8.70;99.90
73939;DHT22;62291;47.554;8.504;2023-11-21T00:22:57;8.70;99.90
73939;DHT22;62291;47.554;8.504;2023-11-21T00:25:24;8.70;99.90
73939;DHT22;62291;47.554;8.504;2023-11-21T00:27:50;8.70;99.90
73939;DHT22;62291;47.554;8.504;2023-11-21T00:30:16;8.60;99.90
73939;DHT22;62291;47.554;8.504;2023-11-21T00:32:42;8.70;99.90
73939;DHT22;62291;47.554;8.504;2023-11-21T00:35:08;8.60;99.90
73939;DHT22;62291;47.554;8.504;2023-11-21T00:37:34;8.60;99.90
73939;DHT22;62291;47.554;8.504;2023-11-21T00:40:00;8.50;99.90
73939;DHT22;62291;47.554;8.504;2023-11-21T00:42:28;8.50;99.90
73939;DHT22;62291;47.554;8.504;2023-11-21T00:44:53;8.50;99.90
73939;DHT22;62291;47.554;8.504;2023-11-21T00:47:19;8.50;99.90
73939;DHT22;62291;47.554;8.504;2023-11-21T00:49:45;8.50;99.90
73939;DHT22;62291;47.554;8.504;2023-11-21T00:52:10;8.40;99.90
73939;DHT22;62291;47.554;8.504;2023-11-21T00:54:36;8.40;99.90
73939;DHT22;62291;47.554;8.504;2023-11-21T00:57:01;8.30;99.90
73939;DHT22;62291;47.554;8.504;2023-11-21T00:59:27;8.30;99.90
73939;DHT22;62291;47.554;8.504;2023-11-21T01:01:53;8.30;99.90
73939;DHT22;62291;47.554;8.504;2023-11-21T01:04:19;8.30;99.90
73939;DHT22;62291;47.554;8.504;2023-11-21T01:06:45;8.20;99.90
73939;DHT22;62291;47.554;8.504;2023-11-21T01:09:11;8.10;99.90
73939;DHT22;62291;47.554;8.504;2023-11-21T01:11:36;8.10;99.90
73939;DHT22;62291;47.554;8.504;2023-11-21T01:14:04;8.10;99.90
73939;DHT22;62291;47.554;8.504;2023-11-21T01:16:30;8.10;99.90
73939;DHT22;62291;47.554;8.504;2023-11-21T01:18:58;8.10;99.90
73939;DHT22;62291;47.554;8.504;2023-11-21T01:21:24;8.20;99.90
73939;DHT22;62291;47.554;8.504;2023-11-21T01:23:50;8.20;99.90
73939;DHT22;62291;47.554;8.504;2023-11-21T01:26:16;8.10;99.90
73939;DHT22;62291;47.554;8.504;2023-11-21T01:28:41;8.10;99.90
73939;DHT22;62291;47.554;8.504;2023-11-21T01:31:07;8.10;99.90
73939;DHT22;62291;47.554;8.504;2023-11-21T01:33:33;8.20;99.90
73939;DHT22;62291;47.554;8.504;2023-11-21T01:35:58;8.20;99.90
73939;DHT22;62291;47.554;8.504;2023-11-21T01:38:25;8.20;99.90
73939;DHT22;62291;47.554;8.504;2023-11-21T01:40:51;8.20;99.90
73939;DHT22;62291;47.554;8.504;2023-11-21T01:43:17;8.20;99.90
73939;DHT22;62291;47.554;8.504;2023-11-21T01:45:43;8.30;99.90
73939;DHT22;62291;47.554;8.504;2023-11-21T01:48:10;8.20;99.90
73939;DHT22;62291;47.554;8.504;2023-11-21T01:50:36;8.30;99.90
73939;DHT22;62291;47.554;8.504;2023-11-21T01:53:02;8.20;99.90
73939;DHT22;62291;47.554;8.504;2023-11-21T01:55:29;8.20;99.90
73939;DHT22;62291;47.554;8.504;2023-11-21T01:57:58;8.20;99.90
73939;DHT22;62291;47.554;8.504;2023-11-21T02:00:24;8.20;99.90
73939;DHT22;62291;47.554;8.504;2023-11-21T02:02:50;8.20;99.90
73939;DHT22;62291;47.554;8.504;2023-11-21T02:05:17;8.20;99.90
73939;DHT22;62291;47.554;8.504;2023-11-21T02:07:44;8.20;99.90
73939;DHT22;62291;47.554;8.504;2023-11-21T02:10:10;8.20;99.90
73939;DHT22;62291;47.554;8.504;2023-11-21T02:12:49;8.20;99.90
73939;DHT22;62291;47.554;8.504;2023-11-21T02:15:17;8.20;99.90
73939;DHT22;62291;47.554;8.504;2023-11-21T02:17:47;8.20;99.90
73939;DHT22;62291;47.554;8.504;2023-11-21T02:20:17;8.20;99.90
73939;DHT22;62291;47.554;8.504;2023-11-21T02:22:48;8.20;99.90
73939;DHT22;62291;47.554;8.504;2023-11-21T02:25:14;8.10;99.90
73939;DHT22;62291;47.554;8.504;2023-11-21T02:27:39;8.10;99.90
73939;DHT22;62291;47.554;8.504;2023-11-21T02:30:05;8.10;99.90
73939;DHT22;62291;47.554;8.504;2023-11-21T02:32:33;8.10;99.90
73939;DHT22;62291;47.554;8.504;2023-11-21T02:34:59;8.10;99.90
73939;DHT22;62291;47.554;8.504;2023-11-21T02:37:28;8.10;99.90
73939;DHT22;62291;47.554;8.504;2023-11-21T02:39:53;8.10;99.90
73939;DHT22;62291;47.554;8.504;2023-11-21T02:42:19;8.10;99.90
73939;DHT22;62291;47.554;8.504;2023-11-21T02:44:45;8.10;99.90
73939;DHT22;62291;47.554;8.504;2023-11-21T02:47:10;8.00;99.90
73939;DHT22;62291;47.554;8.504;2023-11-21T02:49:36;8.00;99.90
73939;DHT22;62291;47.554;8.504;2023-11-21T02:52:02;8.00;99.90
73939;DHT22;62291;47.554;8.504;2023-11-21T02:54:27;8.00;99.90
73939;DHT22;62291;47.554;8.504;2023-11-21T02:56:53;8.00;99.90
73939;DHT22;62291;47.554;8.504;2023-11-21T02:59:19;7.90;99.90
73939;DHT22;62291;47.554;8.504;2023-11-21T03:01:45;7.90;99.90
73939;DHT22;62291;47.554;8.504;2023-11-21T03:04:12;8.00;99.90
73939;DHT22;62291;47.554;8.504;2023-11-21T03:06:43;8.00;99.90
73939;DHT22;62291;47.554;8.504;2023-11-21T03:09:09;7.90;99.90
73939;DHT22;62291;47.554;8.504;2023-11-21T03:11:37;7.80;99.90
73939;DHT22;62291;47.554;8.504;2023-11-21T03:14:03;7.80;99.90
73939;DHT22;62291;47.554;8.504;2023-11-21T03:16:28;7.80;99.90
73939;DHT22;62291;47.554;8.504;2023-11-21T03:18:54;7.80;99.90
73939;DHT22;62291;47.554;8.504;2023-11-21T03:21:20;7.80;99.90
73939;DHT22;62291;47.554;8.504;2023-11-21T03:23:45;7.80;99.90
73939;DHT22;62291;47.554;8.504;2023-11-21T03:26:14;7.90;99.90
73939;DHT22;62291;47.554;8.504;2023-11-21T03:28:40;7.80;99.90
73939;DHT22;62291;47.554;8.504;2023-11-21T03:31:06;7.80;99.90
73939;DHT22;62291;47.554;8.504;2023-11-21T03:33:32;7.80;99.90
73939;DHT22;62291;47.554;8.504;2023-11-21T03:35:58;7.80;99.90
73939;DHT22;62291;47.554;8.504;2023-11-21T03:38:23;7.80;99.90
73939;DHT22;62291;47.554;8.504;2023-11-21T03:40:49;7.80;99.90
73939;DHT22;62291;47.554;8.504;2023-11-21T03:43:16;7.80;99.90
73939;DHT22;62291;47.554;8.504;2023-11-21T03:45:41;7.80;99.90
73939;DHT22;62291;47.554;8.504;2023-11-21T03:48:07;7.70;99.90
73939;DHT22;62291;47.554;8.504;2023-11-21T03:50:34;7.70;99.90
73939;DHT22;62291;47.554;8.504;2023-11-21T03:53:00;7.70;99.90
73939;DHT22;62291;47.554;8.504;2023-11-21T03:55:26;7.60;99.90
73939;DHT22;62291;47.554;8.504;2023-11-21T03:57:52;7.60;99.90
73939;DHT22;62291;47.554;8.504;2023-11-21T04:00:18;7.60;99.90
73939;DHT22;62291;47.554;8.504;2023-11-21T04:02:45;7.60;99.90
73939;DHT22;62291;47.554;8.504;2023-11-21T04:05:11;7.50;99.90
73939;DHT22;62291;47.554;8.504;2023-11-21T04:07:37;7.60;99.90
73939;DHT22;62291;47.554;8.504;2023-11-21T04:10:05;7.60;99.90
73939;DHT22;62291;47.554;8.504;2023-11-21T04:12:34;7.50;99.90
73939;DHT22;62291;47.554;8.504;2023-11-21T04:14:59;7.60;99.90
73939;DHT22;62291;47.554;8.504;2023-11-21T04:17:25;7.60;99.90
73939;DHT22;62291;47.554;8.504;2023-11-21T04:19:51;7.60;99.90
73939;DHT22;62291;47.554;8.504;2023-11-21T04:22:16;7.60;99.90
73939;DHT22;62291;47.554;8.504;2023-11-21T04:24:42;7.60;99.90
73939;DHT22;62291;47.554;8.504;2023-11-21T04:27:08;7.60;99.90
73939;DHT22;62291;47.554;8.504;2023-11-21T04:29:34;7.60;99.90
73939;DHT22;62291;47.554;8.504;2023-11-21T04:32:00;7.70;99.90
73939;DHT22;62291;47.554;8.504;2023-11-21T04:34:26;7.70;99.90
73939;DHT22;62291;47.554;8.504;2023-11-21T04:36:52;7.70;99.90
73939;DHT22;62291;47.554;8.504;2023-11-21T04:39:17;7.70;99.90
73939;DHT22;62291;47.554;8.504;2023-11-21T04:41:43;7.70;99.90
73939;DHT22;62291;47.554;8.504;2023-11-21T04:44:09;7.80;99.90
73939;DHT22;62291;47.554;8.504;2023-11-21T04:46:34;7.80;99.90
73939;DHT22;62291;47.554;8.504;2023-11-21T04:49:00;7.80;99.90
73939;DHT22;62291;47.554;8.504;2023-11-21T04:51:26;7.80;99.90
73939;DHT22;62291;47.554;8.504;2023-11-21T04:53:52;7.70;99.90
73939;DHT22;62291;47.554;8.504;2023-11-21T04:56:18;7.80;99.90
73939;DHT22;62291;47.554;8.504;2023-11-21T04:58:44;7.80;99.90
73939;DHT22;62291;47.554;8.504;2023-11-21T05:01:09;7.80;99.90
73939;DHT22;62291;47.554;8.504;2023-11-21T05:03:35;7.80;99.90
73939;DHT22;62291;47.554;8.504;2023-11-21T05:06:01;7.80;99.90
73939;DHT22;62291;47.554;8.504;2023-11-21T05:08:26;7.80;99.90
73939;DHT22;62291;47.554;8.504;2023-11-21T05:10:52;7.80;99.90
73939;DHT22;62291;47.554;8.504;2023-11-21T05:13:20;7.80;99.90
73939;DHT22;62291;47.554;8.504;2023-11-21T05:15:46;7.80;99.90
73939;DHT22;62291;47.554;8.504;2023-11-21T05:18:11;7.70;99.90
73939;DHT22;62291;47.554;8.504;2023-11-21T05:20:39;7.80;99.90
73939;DHT22;62291;47.554;8.504;2023-11-21T05:23:06;7.80;99.90
73939;DHT22;62291;47.554;8.504;2023-11-21T05:25:33;7.70;99.90
73939;DHT22;62291;47.554;8.504;2023-11-21T05:27:59;7.80;99.90
73939;DHT22;62291;47.554;8.504;2023-11-21T05:30:26;7.80;99.90
73939;DHT22;62291;47.554;8.504;2023-11-21T05:32:52;7.80;99.90
73939;DHT22;62291;47.554;8.504;2023-11-21T05:35:18;7.70;99.90
73939;DHT22;62291;47.554;8.504;2023-11-21T05:37:47;7.80;99.90
73939;DHT22;62291;47.554;8.504;2023-11-21T05:40:13;7.80;99.90
73939;DHT22;62291;47.554;8.504;2023-11-21T05:42:39;7.70;99.90
73939;DHT22;62291;47.554;8.504;2023-11-21T05:45:06;7.80;99.90
73939;DHT22;62291;47.554;8.504;2023-11-21T05:47:42;7.80;99.90
73939;DHT22;62291;47.554;8.504;2023-11-21T05:50:10;7.80;99.90
73939;DHT22;62291;47.554;8.504;2023-11-21T05:52:37;7.80;99.90
73939;DHT22;62291;47.554;8.504;2023-11-21T05:55:03;7.80;99.90
73939;DHT22;62291;47.554;8.504;2023-11-21T05:57:35;7.80;99.90
73939;DHT22;62291;47.554;8.504;2023-11-21T06:00:05;7.90;99.90
73939;DHT22;62291;47.554;8.504;2023-11-21T06:02:46;7.80;99.90
73939;DHT22;62291;47.554;8.504;2023-11-21T06:05:12;7.90;99.90
73939;DHT22;62291;47.554;8.504;2023-11-21T06:07:38;7.90;99.90
73939;DHT22;62291;47.554;8.504;2023-11-21T06:10:08;7.80;99.90
73939;DHT22;62291;47.554;8.504;2023-11-21T06:12:36;7.90;99.90
73939;DHT22;62291;47.554;8.504;2023-11-21T06:15:03;7.90;99.90
73939;DHT22;62291;47.554;8.504;2023-11-21T06:17:31;7.90;99.90
73939;DHT22;62291;47.554;8.504;2023-11-21T06:19:57;7.90;99.90
73939;DHT22;62291;47.554;8.504;2023-11-21T06:22:22;7.90;99.90
73939;DHT22;62291;47.554;8.504;2023-11-21T06:24:48;7.90;99.90
73939;DHT22;62291;47.554;8.504;2023-11-21T06:27:14;7.80;99.90
73939;DHT22;62291;47.554;8.504;2023-11-21T06:29:39;7.80;99.90
73939;DHT22;62291;47.554;8.504;2023-11-21T06:32:07;7.80;99.90
73939;DHT22;62291;47.554;8.504;2023-11-21T06:34:33;7.80;99.90
73939;DHT22;62291;47.554;8.504;2023-11-21T06:36:59;7.80;99.90
73939;DHT22;62291;47.554;8.504;2023-11-21T06:39:25;7.80;99.90
73939;DHT22;62291;47.554;8.504;2023-11-21T06:41:50;7.80;99.90
73939;DHT22;62291;47.554;8.504;2023-11-21T06:44:16;7.80;99.90
73939;DHT22;62291;47.554;8.504;2023-11-21T06:46:41;7.80;99.90
73939;DHT22;62291;47.554;8.504;2023-11-21T06:49:08;7.80;99.90
73939;DHT22;62291;47.554;8.504;2023-11-21T06:51:34;7.80;99.90
73939;DHT22;62291;47.554;8.504;2023-11-21T06:53:59;7.80;99.90
73939;DHT22;62291;47.554;8.504;2023-11-21T06:56:25;7.80;99.90
73939;DHT22;62291;47.554;8.504;2023-11-21T06:58:51;7.80;99.90
73939;DHT22;62291;47.554;8.504;2023-11-21T07:01:19;7.80;99.90
73939;DHT22;62291;47.554;8.504;2023-11-21T07:03:45;7.80;99.90
73939;DHT22;62291;47.554;8.504;2023-11-21T07:06:11;7.80;99.90
73939;DHT22;62291;47.554;8.504;2023-11-21T07:08:37;7.80;99.90
73939;DHT22;62291;47.554;8.504;2023-11-21T07:11:03;7.80;99.90
73939;DHT22;62291;47.554;8.504;2023-11-21T07:13:30;7.80;99.90
73939;DHT22;62291;47.554;8.504;2023-11-21T07:15:57;7.90;99.90
73939;DHT22;62291;47.554;8.504;2023-11-21T07:18:23;7.80;99.90
73939;DHT22;62291;47.554;8.504;2023-11-21T07:20:48;7.80;99.90
73939;DHT22;62291;47.554;8.504;2023-11-21T07:23:14;7.90;99.90
73939;DHT22;62291;47.554;8.504;2023-11-21T07:25:41;8.00;99.90
73939;DHT22;62291;47.554;8.504;2023-11-21T07:28:09;8.00;99.90
73939;DHT22;62291;47.554;8.504;2023-11-21T07:30:35;8.10;99.90
73939;DHT22;62291;47.554;8.504;2023-11-21T07:33:00;8.10;99.90
73939;DHT22;62291;47.554;8.504;2023-11-21T07:35:26;8.10;99.90
73939;DHT22;62291;47.554;8.504;2023-11-21T07:37:52;8.10;99.90
73939;DHT22;62291;47.554;8.504;2023-11-21T07:40:17;8.10;99.90
73939;DHT22;62291;47.554;8.504;2023-11-21T07:42:43;8.10;99.90
73939;DHT22;62291;47.554;8.504;2023-11-21T07:45:09;8.10;99.90
73939;DHT22;62291;47.554;8.504;2023-11-21T07:47:35;8.10;99.90
73939;DHT22;62291;47.554;8.504;2023-11-21T07:50:04;8.20;99.90
73939;DHT22;62291;47.554;8.504;2023-11-21T07:52:29;8.30;99.90
73939;DHT22;62291;47.554;8.504;2023-11-21T07:54:55;8.30;99.90
73939;DHT22;62291;47.554;8.504;2023-11-21T07:57:21;8.30;99.90
73939;DHT22;62291;47.554;8.504;2023-11-21T07:59:47;8.30;99.90
73939;DHT22;62291;47.554;8.504;2023-11-21T08:02:13;8.30;99.90
73939;DHT22;62291;47.554;8.504;2023-11-21T08:04:38;8.40;99.90
73939;DHT22;62291;47.554;8.504;2023-11-21T08:07:04;8.50;99.90
73939;DHT22;62291;47.554;8.504;2023-11-21T08:09:30;8.60;99.90
73939;DHT22;62291;47.554;8.504;2023-11-21T08:11:56;8.60;99.90
73939;DHT22;62291;47.554;8.504;2023-11-21T08:14:22;8.60;99.90
73939;DHT22;62291;47.554;8.504;2023-11-21T08:16:50;8.70;99.90
73939;DHT22;62291;47.554;8.504;2023-11-21T08:19:16;8.70;99.90
73939;DHT22;62291;47.554;8.504;2023-11-21T08:21:43;8.80;99.90
73939;DHT22;62291;47.554;8.504;2023-11-21T08:24:10;8.80;99.90
73939;DHT22;62291;47.554;8.504;2023-11-21T08:26:37;8.90;99.90
73939;DHT22;62291;47.554;8.504;2023-11-21T08:29:03;8.90;99.90
73939;DHT22;62291;47.554;8.504;2023-11-21T08:31:29;8.90;99.90
73939;DHT22;62291;47.554;8.504;2023-11-21T08:33:55;9.00;99.90
73939;DHT22;62291;47.554;8.504;2023-11-21T08:36:23;9.00;99.90
73939;DHT22;62291;47.554;8.504;2023-11-21T08:38:50;9.00;99.90
73939;DHT22;62291;47.554;8.504;2023-11-21T08:41:18;8.90;99.90
73939;DHT22;62291;47.554;8.504;2023-11-21T08:43:48;9.00;99.90
73939;DHT22;62291;47.554;8.504;2023-11-21T08:46:14;9.00;99.90
73939;DHT22;62291;47.554;8.504;2023-11-21T08:48:40;8.90;99.90
73939;DHT22;62291;47.554;8.504;2023-11-21T08:51:06;8.90;99.90
73939;DHT22;62291;47.554;8.504;2023-11-21T08:53:32;8.90;99.90
73939;DHT22;62291;47.554;8.504;2023-11-21T08:55:58;8.90;99.90
73939;DHT22;62291;47.554;8.504;2023-11-21T08:58:24;8.90;99.90
73939;DHT22;62291;47.554;8.504;2023-11-21T09:00:49;8.90;99.90
73939;DHT22;62291;47.554;8.504;2023-11-21T09:03:15;8.90;99.90
73939;DHT22;62291;47.554;8.504;2023-11-21T09:05:41;8.90;99.90
73939;DHT22;62291;47.554;8.504;2023-11-21T09:08:07;8.90;99.90
73939;DHT22;62291;47.554;8.504;2023-11-21T09:10:34;9.00;99.90
73939;DHT22;62291;47.554;8.504;2023-11-21T09:13:02;9.00;99.90
73939;DHT22;62291;47.554;8.504;2023-11-21T09:15:28;9.00;99.90
73939;DHT22;62291;47.554;8.504;2023-11-21T09:17:53;9.20;99.90
73939;DHT22;62291;47.554;8.504;2023-11-21T09:20:19;9.30;99.90
73939;DHT22;62291;47.554;8.504;2023-11-21T09:22:48;9.40;99.90
73939;DHT22;62291;47.554;8.504;2023-11-21T09:25:14;9.50;99.90
73939;DHT22;62291;47.554;8.504;2023-11-21T09:27:40;9.60;99.90
73939;DHT22;62291;47.554;8.504;2023-11-21T09:30:07;9.80;99.90
73939;DHT22;62291;47.554;8.504;2023-11-21T09:32:36;9.80;99.90
73939;DHT22;62291;47.554;8.504;2023-11-21T09:35:04;9.80;99.90
73939;DHT22;62291;47.554;8.504;2023-11-21T09:37:31;9.90;99.90
73939;DHT22;62291;47.554;8.504;2023-11-21T09:39:56;9.90;99.90
73939;DHT22;62291;47.554;8.504;2023-11-21T09:42:25;9.90;99.90
73939;DHT22;62291;47.554;8.504;2023-11-21T09:45:04;9.90;99.90
73939;DHT22;62291;47.554;8.504;2023-11-21T09:47:35;9.90;99.90
73939;DHT22;62291;47.554;8.504;2023-11-21T09:50:02;9.80;99.90
73939;DHT22;62291;47.554;8.504;2023-11-21T09:52:28;9.80;99.90
73939;DHT22;62291;47.554;8.504;2023-11-21T09:54:55;9.70;99.90
73939;DHT22;62291;47.554;8.504;2023-11-21T09:57:24;9.80;99.90
73939;DHT22;62291;47.554;8.504;2023-11-21T09:59:54;9.70;99.90
73939;DHT22;62291;47.554;8.504;2023-11-21T10:02:26;9.80;99.90
73939;DHT22;62291;47.554;8.504;2023-11-21T10:04:55;9.90;99.90
73939;DHT22;62291;47.554;8.504;2023-11-21T10:07:22;10.00;99.90
73939;DHT22;62291;47.554;8.504;2023-11-21T10:09:48;10.20;99.90
73939;DHT22;62291;47.554;8.504;2023-11-21T10:12:15;10.40;99.90
73939;DHT22;62291;47.554;8.504;2023-11-21T10:14:42;11.00;99.90
73939;DHT22;62291;47.554;8.504;2023-11-21T10:17:10;11.50;99.90
73939;DHT22;62291;47.554;8.504;2023-11-21T10:19:39;11.90;99.90
73939;DHT22;62291;47.554;8.504;2023-11-21T10:22:05;11.80;99.90
73939;DHT22;62291;47.554;8.504;2023-11-21T10:24:32;11.80;99.90
73939;DHT22;62291;47.554;8.504;2023-11-21T10:26:58;11.90;99.90
73939;DHT22;62291;47.554;8.504;2023-11-21T10:29:28;12.10;99.90
73939;DHT22;62291;47.554;8.504;2023-11-21T10:31:54;12.30;99.90
73939;DHT22;62291;47.554;8.504;2023-11-21T10:34:23;12.20;99.90
73939;DHT22;62291;47.554;8.504;2023-11-21T10:36:49;12.50;99.90
73939;DHT22;62291;47.554;8.504;2023-11-21T10:39:17;12.80;99.90
73939;DHT22;62291;47.554;8.504;2023-11-21T10:41:47;12.90;99.90
73939;DHT22;62291;47.554;8.504;2023-11-21T10:44:17;12.80;99.90
73939;DHT22;62291;47.554;8.504;2023-11-21T10:46:48;12.70;99.90
73939;DHT22;62291;47.554;8.504;2023-11-21T10:49:20;12.60;99.90
73939;DHT22;62291;47.554;8.504;2023-11-21T10:51:46;12.50;99.90
73939;DHT22;62291;47.554;8.504;2023-11-21T10:54:18;12.30;99.90
73939;DHT22;62291;47.554;8.504;2023-11-21T10:56:44;12.20;99.90
73939;DHT22;62291;47.554;8.504;2023-11-21T10:59:10;12.10;99.90
73939;DHT22;62291;47.554;8.504;2023-11-21T11:01:43;12.10;99.90
73939;DHT22;62291;47.554;8.504;2023-11-21T11:04:11;12.20;99.90
73939;DHT22;62291;47.554;8.504;2023-11-21T11:06:53;12.30;99.90
73939;DHT22;62291;47.554;8.504;2023-11-21T11:09:19;12.40;99.90
73939;DHT22;62291;47.554;8.504;2023-11-21T11:11:46;12.20;99.90
73939;DHT22;62291;47.554;8.504;2023-11-21T11:14:13;12.10;99.90
73939;DHT22;62291;47.554;8.504;2023-11-21T11:16:40;12.00;99.90
73939;DHT22;62291;47.554;8.504;2023-11-21T11:19:09;11.90;99.90
73939;DHT22;62291;47.554;8.504;2023-11-21T11:22:03;11.80;99.90
73939;DHT22;62291;47.554;8.504;2023-11-21T11:25:06;11.90;99.90
73939;DHT22;62291;47.554;8.504;2023-11-21T11:28:04;11.90;99.90
73939;DHT22;62291;47.554;8.504;2023-11-21T11:30:41;12.00;99.90
73939;DHT22;62291;47.554;8.504;2023-11-21T11:38:56;11.70;99.90
73939;DHT22;62291;47.554;8.504;2023-11-21T11:41:26;11.50;99.90
73939;DHT22;62291;47.554;8.504;2023-11-21T11:43:53;11.30;99.90
73939;DHT22;62291;47.554;8.504;2023-11-21T11:46:19;11.20;99.90
73939;DHT22;62291;47.554;8.504;2023-11-21T11:48:48;11.00;99.90
73939;DHT22;62291;47.554;8.504;2023-11-21T11:51:28;10.90;99.90
73939;DHT22;62291;47.554;8.504;2023-11-21T11:53:54;10.80;99.90
73939;DHT22;62291;47.554;8.504;2023-11-21T11:56:25;10.70;99.90
73939;DHT22;62291;47.554;8.504;2023-11-21T11:58:53;10.60;99.90
73939;DHT22;62291;47.554;8.504;2023-11-21T12:01:20;10.50;99.90
73939;DHT22;62291;47.554;8.504;2023-11-21T12:06:42;10.40;99.90
73939;DHT22;62291;47.554;8.504;2023-11-21T12:09:22;10.50;99.90
73939;DHT22;62291;47.554;8.504;2023-11-21T12:11:49;10.50;99.90
73939;DHT22;62291;47.554;8.504;2023-11-21T12:14:16;10.50;99.90
73939;DHT22;62291;47.554;8.504;2023-11-21T12:16:42;10.60;99.90
73939;DHT22;62291;47.554;8.504;2023-11-21T12:19:13;10.50;99.90
73939;DHT22;62291;47.554;8.504;2023-11-21T12:21:40;10.60;99.90
73939;DHT22;62291;47.554;8.504;2023-11-21T12:24:09;10.60;99.90
73939;DHT22;62291;47.554;8.504;2023-11-21T12:26:35;10.50;99.90
73939;DHT22;62291;47.554;8.504;2023-11-21T12:29:04;10.50;99.90
73939;DHT22;62291;47.554;8.504;2023-11-21T12:31:33;10.50;99.90
73939;DHT22;62291;47.554;8.504;2023-11-21T12:34:00;10.60;99.90
73939;DHT22;62291;47.554;8.504;2023-11-21T12:36:26;10.60;99.90
73939;DHT22;62291;47.554;8.504;2023-11-21T12:38:52;10.60;99.90
73939;DHT22;62291;47.554;8.504;2023-11-21T12:41:17;10.60;99.90
73939;DHT22;62291;47.554;8.504;2023-11-21T12:43:43;10.60;99.90
73939;DHT22;62291;47.554;8.504;2023-11-21T12:46:10;10.60;99.90
73939;DHT22;62291;47.554;8.504;2023-11-21T12:48:41;10.50;99.90
73939;DHT22;62291;47.554;8.504;2023-11-21T12:51:10;10.50;99.90
73939;DHT22;62291;47.554;8.504;2023-11-21T12:53:44;10.50;99.90
73939;DHT22;62291;47.554;8.504;2023-11-21T12:56:11;10.50;99.90
73939;DHT22;62291;47.554;8.504;2023-11-21T12:58:38;10.50;99.90
73939;DHT22;62291;47.554;8.504;2023-11-21T13:01:06;10.60;99.90
73939;DHT22;62291;47.554;8.504;2023-11-21T13:03:37;10.50;99.90
73939;DHT22;62291;47.554;8.504;2023-11-21T13:06:04;10.30;99.90
73939;DHT22;62291;47.554;8.504;2023-11-21T13:08:30;10.40;99.90
73939;DHT22;62291;47.554;8.504;2023-11-21T13:10:58;10.40;99.90
73939;DHT22;62291;47.554;8.504;2023-11-21T13:13:27;10.40;99.90
73939;DHT22;62291;47.554;8.504;2023-11-21T13:15:55;10.30;99.90
73939;DHT22;62291;47.554;8.504;2023-11-21T13:18:26;10.30;99.90
73939;DHT22;62291;47.554;8.504;2023-11-21T13:20:54;10.30;99.90
73939;DHT22;62291;47.554;8.504;2023-11-21T13:23:20;10.30;99.90
73939;DHT22;62291;47.554;8.504;2023-11-21T13:25:46;10.40;99.90
73939;DHT22;62291;47.554;8.504;2023-11-21T13:28:13;10.30;99.90
73939;DHT22;62291;47.554;8.504;2023-11-21T13:30:41;10.30;99.90
73939;DHT22;62291;47.554;8.504;2023-11-21T13:33:08;10.20;99.90
73939;DHT22;62291;47.554;8.504;2023-11-21T13:35:38;10.20;99.90
73939;DHT22;62291;47.554;8.504;2023-11-21T13:38:11;10.30;99.90
73939;DHT22;62291;47.554;8.504;2023-11-21T13:40:38;10.30;99.90
73939;DHT22;62291;47.554;8.504;2023-11-21T13:43:13;10.30;99.90
73939;DHT22;62291;47.554;8.504;2023-11-21T13:45:43;10.30;99.90
73939;DHT22;62291;47.554;8.504;2023-11-21T13:48:10;10.20;99.90
73939;DHT22;62291;47.554;8.504;2023-11-21T13:50:45;10.20;99.90
73939;DHT22;62291;47.554;8.504;2023-11-21T13:53:21;10.20;99.90
73939;DHT22;62291;47.554;8.504;2023-11-21T13:55:50;10.20;99.90
73939;DHT22;62291;47.554;8.504;2023-11-21T13:58:17;10.20;99.90
73939;DHT22;62291;47.554;8.504;2023-11-21T14:00:50;10.30;99.90
73939;DHT22;62291;47.554;8.504;2023-11-21T14:03:24;10.40;99.90
73939;DHT22;62291;47.554;8.504;2023-11-21T14:06:03;10.40;99.90
73939;DHT22;62291;47.554;8.504;2023-11-21T14:08:34;10.30;99.90
73939;DHT22;62291;47.554;8.504;2023-11-21T14:11:00;10.30;99.90
73939;DHT22;62291;47.554;8.504;2023-11-21T14:13:26;10.30;99.90
73939;DHT22;62291;47.554;8.504;2023-11-21T14:15:53;10.50;99.90
73939;DHT22;62291;47.554;8.504;2023-11-21T14:18:27;10.50;99.90
73939;DHT22;62291;47.554;8.504;2023-11-21T14:20:57;10.60;99.90
73939;DHT22;62291;47.554;8.504;2023-11-21T14:23:23;10.60;99.90
73939;DHT22;62291;47.554;8.504;2023-11-21T14:25:49;10.60;99.90
73939;DHT22;62291;47.554;8.504;2023-11-21T14:28:16;10.60;99.90
73939;DHT22;62291;47.554;8.504;2023-11-21T14:30:42;10.60;99.90
73939;DHT22;62291;47.554;8.504;2023-11-21T14:33:08;10.60;99.90
73939;DHT22;62291;47.554;8.504;2023-11-21T14:35:35;10.70;99.90
73939;DHT22;62291;47.554;8.504;2023-11-21T14:38:02;10.60;99.90
73939;DHT22;62291;47.554;8.504;2023-11-21T14:40:31;10.60;99.90
73939;DHT22;62291;47.554;8.504;2023-11-21T14:43:00;10.60;99.90
73939;DHT22;62291;47.554;8.504;2023-11-21T14:45:26;10.60;99.90
73939;DHT22;62291;47.554;8.504;2023-11-21T14:47:52;10.50;99.90
73939;DHT22;62291;47.554;8.504;2023-11-21T14:50:30;10.50;99.90
73939;DHT22;62291;47.554;8.504;2023-11-21T14:53:12;10.50;99.90
73939;DHT22;62291;47.554;8.504;2023-11-21T14:55:40;10.50;99.90
73939;DHT22;62291;47.554;8.504;2023-11-21T14:58:18;10.40;99.90
73939;DHT22;62291;47.554;8.504;2023-11-21T15:00:58;10.30;99.90
73939;DHT22;62291;47.554;8.504;2023-11-21T15:03:28;10.20;99.90
73939;DHT22;62291;47.554;8.504;2023-11-21T15:06:00;10.10;99.90
73939;DHT22;62291;47.554;8.504;2023-11-21T15:08:51;10.00;99.90
73939;DHT22;62291;47.554;8.504;2023-11-21T15:11:22;10.00;99.90
73939;DHT22;62291;47.554;8.504;2023-11-21T15:13:55;10.00;99.90
73939;DHT22;62291;47.554;8.504;2023-11-21T15:16:20;10.00;99.90
73939;DHT22;62291;47.554;8.504;2023-11-21T15:18:46;9.90;99.90
73939;DHT22;62291;47.554;8.504;2023-11-21T15:21:12;9.90;99.90
73939;DHT22;62291;47.554;8.504;2023-11-21T15:23:38;9.90;99.90
73939;DHT22;62291;47.554;8.504;2023-11-21T15:26:07;9.80;99.90
73939;DHT22;62291;47.554;8.504;2023-11-21T15:28:34;9.80;99.90
73939;DHT22;62291;47.554;8.504;2023-11-21T15:31:00;9.70;99.90
73939;DHT22;62291;47.554;8.504;2023-11-21T15:33:28;9.70;99.90
73939;DHT22;62291;47.554;8.504;2023-11-21T15:35:53;9.70;99.90
73939;DHT22;62291;47.554;8.504;2023-11-21T15:38:20;9.70;99.90
73939;DHT22;62291;47.554;8.504;2023-11-21T15:40:47;9.70;99.90
73939;DHT22;62291;47.554;8.504;2023-11-21T15:43:14;9.60;99.90
73939;DHT22;62291;47.554;8.504;2023-11-21T15:45:39;9.60;99.90
73939;DHT22;62291;47.554;8.504;2023-11-21T15:48:05;9.60;99.90
73939;DHT22;62291;47.554;8.504;2023-11-21T15:50:31;9.60;99.90
73939;DHT22;62291;47.554;8.504;2023-11-21T15:52:57;9.60;99.90